createdAt,value
2023-01-25T00:00:45.123Z,97976.84
2023-01-25T00:03:31.428Z,97973.88
2023-01-25T00:06:01.444Z,97965.28
2023-01-25T00:08:30.051Z,97967.97
2023-01-25T00:11:00.436Z,97965.28
2023-01-25T00:13:28.754Z,97960.72
2023-01-25T00:16:03.113Z,97968.06
2023-01-25T00:18:32.868Z,97964.41
2023-01-25T00:21:01.290Z,97962.88
2023-01-25T00:23:29.984Z,97969.31
2023-01-25T00:25:59.992Z,97972.31
2023-01-25T00:28:28.719Z,97973.97
2023-01-25T00:31:00.621Z,97965.56
2023-01-25T00:33:41.385Z,97956.25
2023-01-25T00:36:35.438Z,97964.72
2023-01-25T00:39:06.195Z,97968.72
2023-01-25T00:41:36.137Z,97968.84
2023-01-25T00:44:04.861Z,97953.81
2023-01-25T00:46:34.028Z,97951.81
2023-01-25T00:49:02.412Z,97966.34
2023-01-25T00:51:31.175Z,97960.38
2023-01-25T00:53:59.997Z,97923.56
2023-01-25T00:56:29.486Z,97961.88
2023-01-25T00:58:59.264Z,97960.91
2023-01-25T01:01:27.740Z,97953.88
2023-01-25T01:26:33.182Z,97947.03
2023-01-25T01:39:04.297Z,97936.00
2023-01-25T01:41:34.038Z,97907.28
2023-01-25T01:44:02.860Z,97941.69
2023-01-25T01:46:37.512Z,97934.66
2023-01-25T01:49:16.471Z,97941.66
2023-01-25T01:51:49.029Z,97938.84
2023-01-25T01:54:27.135Z,97941.50
2023-01-25T01:57:01.206Z,97945.88
2023-01-25T01:59:34.909Z,97942.19
2023-01-25T02:02:04.610Z,97944.34
2023-01-25T02:04:33.722Z,97937.59
2023-01-25T02:07:16.325Z,97914.16
2023-01-25T02:16:33.326Z,97924.16
2023-01-25T02:19:04.036Z,97950.69
2023-01-25T02:21:38.984Z,97940.00
2023-01-25T02:24:13.701Z,97935.00
2023-01-25T02:26:45.022Z,97955.50
2023-01-25T02:29:14.429Z,97955.13
2023-01-25T02:31:45.907Z,97940.53
2023-01-25T02:34:15.418Z,97946.41
2023-01-25T02:36:44.199Z,97947.38
2023-01-25T02:39:20.282Z,97939.69
2023-01-25T02:41:52.991Z,97925.41
2023-01-25T02:44:25.300Z,97941.34
2023-01-25T02:46:53.930Z,97942.03
2023-01-25T02:49:23.300Z,97947.63
2023-01-25T02:51:57.260Z,97948.22
2023-01-25T02:54:27.109Z,97940.13
2023-01-25T02:57:00.414Z,97936.22
2023-01-25T02:59:34.178Z,97947.59
2023-01-25T03:02:03.591Z,97943.78
2023-01-25T03:04:33.247Z,97938.13
2023-01-25T03:07:02.348Z,97937.28
2023-01-25T03:09:31.903Z,97938.81
2023-01-25T03:12:02.799Z,97938.13
2023-01-25T03:14:33.349Z,97939.97
2023-01-25T03:17:02.441Z,97921.84
2023-01-25T03:19:31.747Z,97926.84
2023-01-25T03:22:00.992Z,97930.91
2023-01-25T03:24:29.994Z,97931.50
2023-01-25T03:27:14.326Z,97930.75
2023-01-25T03:29:51.045Z,97924.41
2023-01-25T03:32:27.750Z,97923.63
2023-01-25T03:35:08.735Z,97922.13
2023-01-25T03:37:38.207Z,97913.09
2023-01-25T03:40:08.853Z,97918.91
2023-01-25T03:42:37.972Z,97923.78
2023-01-25T03:45:09.694Z,97920.56
2023-01-25T03:47:38.791Z,97906.91
2023-01-25T03:50:10.125Z,97904.91
2023-01-25T03:52:42.125Z,97893.91
2023-01-25T03:55:11.724Z,97892.94
2023-01-25T03:57:43.126Z,97901.19
2023-01-25T04:00:14.862Z,97894.44
2023-01-25T04:02:50.692Z,97897.59
2023-01-25T04:05:21.107Z,97898.28
2023-01-25T04:07:49.609Z,97890.47
2023-01-25T04:10:23.515Z,97886.81
2023-01-25T04:12:52.322Z,97883.97
2023-01-25T04:15:22.028Z,97867.63
2023-01-25T04:17:50.803Z,97887.41
2023-01-25T04:20:24.014Z,97879.88
2023-01-25T04:22:54.048Z,97880.56
2023-01-25T04:25:26.976Z,97882.22
2023-01-25T04:27:55.807Z,97857.19
2023-01-25T04:30:25.666Z,97878.63
2023-01-25T04:32:56.045Z,97875.41
2023-01-25T04:35:28.828Z,97870.78
2023-01-25T04:37:59.762Z,97870.31
2023-01-25T04:40:39.017Z,97871.47
2023-01-25T04:43:08.223Z,97867.94
2023-01-25T04:45:38.607Z,97870.63
2023-01-25T04:48:14.679Z,97865.66
2023-01-25T04:50:50.615Z,97861.22
2023-01-25T04:53:23.429Z,97865.91
2023-01-25T04:55:52.970Z,97869.41
2023-01-25T04:58:22.037Z,97864.19
2023-01-25T05:00:54.765Z,97868.19
2023-01-25T05:03:23.795Z,97864.59
2023-01-25T05:05:54.353Z,97869.63
2023-01-25T05:08:26.512Z,97866.31
2023-01-25T05:10:57.818Z,97871.66
2023-01-25T05:13:56.262Z,97867.88
2023-01-25T05:16:32.740Z,97853.66
2023-01-25T05:19:04.169Z,97842.44
2023-01-25T05:22:00.235Z,97845.69
2023-01-25T05:24:42.432Z,97844.03
2023-01-25T05:27:16.393Z,97847.63
2023-01-25T05:30:09.351Z,97841.44
2023-01-25T05:32:51.006Z,97844.09
2023-01-25T05:35:19.935Z,97842.13
2023-01-25T05:37:50.633Z,97840.28
2023-01-25T05:40:25.514Z,97830.50
2023-01-25T05:42:57.303Z,97826.41
2023-01-25T05:45:27.821Z,97831.34
2023-01-25T05:47:59.231Z,97819.06
2023-01-25T05:50:28.622Z,97804.06
2023-01-25T05:53:04.338Z,97833.09
2023-01-25T05:55:33.337Z,97830.94
2023-01-25T05:58:06.250Z,97829.94
2023-01-25T06:00:36.509Z,97831.84
2023-01-25T06:03:06.808Z,97820.06
2023-01-25T06:05:38.063Z,97823.59
2023-01-25T06:08:06.609Z,97822.84
2023-01-25T06:10:48.879Z,97822.09
2023-01-25T06:13:17.290Z,97825.38
2023-01-25T06:15:53.536Z,97828.44
2023-01-25T06:18:53.328Z,97813.97
2023-01-25T06:21:21.818Z,97819.16
2023-01-25T06:23:51.021Z,97813.25
2023-01-25T06:26:19.423Z,97817.75
2023-01-25T06:28:47.723Z,97808.22
2023-01-25T06:31:18.563Z,97817.16
2023-01-25T06:33:50.528Z,97810.50
2023-01-25T06:36:24.252Z,97798.22
2023-01-25T06:38:53.619Z,97809.00
2023-01-25T06:41:23.190Z,97808.06
2023-01-25T06:43:52.164Z,97810.84
2023-01-25T06:46:21.340Z,97812.53
2023-01-25T06:48:50.261Z,97816.00
2023-01-25T06:51:19.481Z,97810.50
2023-01-25T06:53:50.042Z,97805.16
2023-01-25T06:56:21.358Z,97799.97
2023-01-25T06:58:50.747Z,97807.00
2023-01-25T07:01:22.340Z,97796.50
2023-01-25T07:03:51.549Z,97809.25
2023-01-25T07:06:20.241Z,97805.59
2023-01-25T07:08:50.661Z,97792.78
2023-01-25T07:11:19.768Z,97814.25
2023-01-25T07:13:50.905Z,97790.81
2023-01-25T07:16:21.692Z,97798.97
2023-01-25T07:18:50.920Z,97814.16
2023-01-25T07:21:21.424Z,97817.47
2023-01-25T07:23:52.926Z,97821.81
2023-01-25T07:26:24.662Z,97818.16
2023-01-25T07:28:54.585Z,97813.81
2023-01-25T07:31:23.424Z,97804.78
2023-01-25T07:33:57.199Z,97795.84
2023-01-25T07:36:26.020Z,97805.38
2023-01-25T07:38:57.254Z,97799.22
2023-01-25T07:41:26.986Z,97804.00
2023-01-25T07:43:56.483Z,97803.56
2023-01-25T07:46:44.782Z,97806.00
2023-01-25T07:49:13.777Z,97801.72
2023-01-25T07:51:42.071Z,97798.06
2023-01-25T07:54:13.300Z,97794.81
2023-01-25T07:56:41.626Z,97795.31
2023-01-25T07:59:11.941Z,97796.47
2023-01-25T08:01:41.133Z,97795.84
2023-01-25T08:04:10.474Z,97800.88
2023-01-25T08:06:40.149Z,97806.38
2023-01-25T08:09:12.401Z,97805.31
2023-01-25T08:11:43.585Z,97800.13
2023-01-25T08:14:11.923Z,97797.81
2023-01-25T08:16:40.278Z,97801.50
2023-01-25T08:19:10.591Z,97795.25
2023-01-25T08:21:39.187Z,97798.44
2023-01-25T08:24:09.862Z,97804.63
2023-01-25T08:26:38.501Z,97802.97
2023-01-25T08:29:08.229Z,97791.44
2023-01-25T08:31:37.429Z,97798.06
2023-01-25T08:34:06.784Z,97797.38
2023-01-25T08:36:36.153Z,97781.78
2023-01-25T08:39:07.619Z,97787.97
2023-01-25T08:41:36.512Z,97777.09
2023-01-25T08:44:05.469Z,97780.34
2023-01-25T08:46:35.285Z,97770.44
2023-01-25T08:49:04.894Z,97755.84
2023-01-25T08:51:34.417Z,97772.41
2023-01-25T08:54:03.967Z,97778.16
2023-01-25T08:56:32.524Z,97775.16
2023-01-25T08:59:00.826Z,97757.25
2023-01-25T09:01:30.419Z,97781.19
2023-01-25T09:04:00.255Z,97775.00
2023-01-25T09:06:29.609Z,97767.91
2023-01-25T09:09:00.405Z,97773.03
2023-01-25T09:11:28.787Z,97768.38
2023-01-25T09:13:57.626Z,97774.19
2023-01-25T09:16:30.401Z,97762.97
2023-01-25T09:19:02.042Z,97770.28
2023-01-25T09:21:31.379Z,97770.00
2023-01-25T09:24:08.192Z,97761.81
2023-01-25T09:26:39.009Z,97756.91
2023-01-25T09:29:08.659Z,97770.75
2023-01-25T09:31:40.377Z,97775.41
2023-01-25T09:34:29.132Z,97766.94
2023-01-25T09:36:57.803Z,97772.25
2023-01-25T09:39:26.065Z,97766.53
2023-01-25T09:42:28.745Z,97775.94
2023-01-25T09:45:12.100Z,97768.53
2023-01-25T09:47:48.601Z,97738.59
2023-01-25T09:50:33.087Z,97748.88
2023-01-25T09:53:26.463Z,97760.13
2023-01-25T09:55:58.738Z,97760.00
2023-01-25T09:58:35.634Z,97761.50
2023-01-25T10:01:19.485Z,97750.13
2023-01-25T10:03:56.953Z,97751.25
2023-01-25T10:06:36.943Z,97750.44
2023-01-25T10:09:17.502Z,97741.66
2023-01-25T10:11:46.265Z,97738.53
2023-01-25T10:14:17.150Z,97733.34
2023-01-25T10:16:56.319Z,97730.75
2023-01-25T10:19:41.237Z,97711.22
2023-01-25T10:22:16.992Z,97729.00
2023-01-25T10:25:00.229Z,97731.16
2023-01-25T10:27:39.047Z,97718.41
2023-01-25T10:30:30.921Z,97716.50
2023-01-25T10:33:02.147Z,97700.53
2023-01-25T10:35:40.140Z,97707.34
2023-01-25T10:38:16.198Z,97714.94
2023-01-25T10:40:50.861Z,97702.06
2023-01-25T10:43:21.235Z,97696.72
2023-01-25T10:45:51.433Z,97685.22
2023-01-25T10:48:22.319Z,97686.72
2023-01-25T10:50:53.926Z,97686.56
2023-01-25T10:53:30.070Z,97683.22
2023-01-25T10:56:03.571Z,97677.88
2023-01-25T10:58:34.444Z,97676.13
2023-01-25T11:01:04.172Z,97659.19
2023-01-25T11:03:38.336Z,97664.97
2023-01-25T11:06:08.823Z,97666.38
2023-01-25T11:08:41.428Z,97658.41
2023-01-25T11:11:25.485Z,97656.88
2023-01-25T11:13:55.963Z,97646.81
2023-01-25T11:16:37.181Z,97641.47
2023-01-25T11:19:27.071Z,97635.72
2023-01-25T11:21:57.863Z,97638.06
2023-01-25T11:24:30.373Z,97636.22
2023-01-25T11:27:20.852Z,97629.31
2023-01-25T11:30:09.372Z,97628.22
2023-01-25T11:32:40.161Z,97626.50
2023-01-25T11:35:14.353Z,97622.09
2023-01-25T11:37:53.222Z,97616.41
2023-01-25T11:40:38.338Z,97591.59
2023-01-25T11:43:18.312Z,97606.34
2023-01-25T11:46:02.791Z,97599.03
2023-01-25T11:48:59.346Z,97595.94
2023-01-25T11:51:33.385Z,97597.47
2023-01-25T11:54:26.854Z,97588.78
2023-01-25T11:57:00.554Z,97573.22
2023-01-25T11:59:53.467Z,97573.72
2023-01-25T12:02:49.237Z,97563.69
2023-01-25T12:05:29.495Z,97562.00
2023-01-25T12:08:11.429Z,97557.38
2023-01-25T12:10:51.876Z,97554.91
2023-01-25T12:13:30.901Z,97545.72
2023-01-25T12:16:21.391Z,97549.69
2023-01-25T12:19:24.540Z,97517.91
2023-01-25T12:22:13.354Z,97543.22
2023-01-25T12:24:51.635Z,97535.28
2023-01-25T12:27:32.369Z,97539.97
2023-01-25T12:30:12.714Z,97526.47
2023-01-25T12:32:48.993Z,97535.25
2023-01-25T12:35:26.515Z,97524.13
2023-01-25T12:38:01.348Z,97526.63
2023-01-25T12:40:41.462Z,97522.03
2023-01-25T12:43:18.737Z,97513.81
2023-01-25T12:45:52.834Z,97508.34
2023-01-25T12:48:26.986Z,97512.03
2023-01-25T12:50:57.818Z,97497.50
2023-01-25T12:53:28.822Z,97495.13
2023-01-25T12:56:00.048Z,97491.66
2023-01-25T12:58:38.542Z,97489.81
2023-01-25T13:01:21.131Z,97481.25
2023-01-25T13:04:04.477Z,97479.19
2023-01-25T13:06:41.935Z,97470.06
2023-01-25T13:09:17.805Z,97478.75
2023-01-25T13:11:48.987Z,97472.94
2023-01-25T13:14:28.062Z,97470.75
2023-01-25T13:17:12.903Z,97469.25
2023-01-25T13:19:45.513Z,97458.84
2023-01-25T13:22:16.349Z,97460.97
2023-01-25T13:25:20.667Z,97452.41
2023-01-25T13:27:49.285Z,97451.41
2023-01-25T13:30:31.676Z,97442.59
2023-01-25T13:33:04.628Z,97441.50
2023-01-25T13:35:51.578Z,97446.41
2023-01-25T13:38:37.066Z,97443.16
2023-01-25T13:41:12.450Z,97439.66
2023-01-25T13:43:44.555Z,97431.13
2023-01-25T13:46:17.006Z,97431.78
2023-01-25T13:48:58.912Z,97423.41
2023-01-25T13:51:32.904Z,97424.88
2023-01-25T13:54:01.436Z,97411.53
2023-01-25T13:56:33.217Z,97422.78
2023-01-25T13:59:01.907Z,97423.91
2023-01-25T14:01:33.410Z,97420.41
2023-01-25T14:04:05.946Z,97425.41
2023-01-25T14:06:37.952Z,97422.69
2023-01-25T14:09:16.415Z,97417.34
2023-01-25T14:11:47.406Z,97420.38
2023-01-25T14:14:25.228Z,97416.22
2023-01-25T14:19:38.055Z,97409.75
2023-01-25T14:22:22.844Z,97405.09
2023-01-25T14:25:07.541Z,97404.25
2023-01-25T14:27:37.040Z,97404.06
2023-01-25T14:30:07.200Z,97399.53
2023-01-25T14:32:36.965Z,97402.34
2023-01-25T14:38:29.694Z,97407.06
2023-01-25T14:41:03.580Z,97393.16
2023-01-25T14:43:32.255Z,97401.72
2023-01-25T14:46:00.971Z,97403.91
2023-01-25T14:48:41.366Z,97396.25
2023-01-25T14:51:19.680Z,97389.06
2023-01-25T14:53:51.070Z,97389.91
2023-01-25T14:56:32.239Z,97394.44
2023-01-25T14:59:02.252Z,97388.72
2023-01-25T15:01:34.422Z,97394.84
2023-01-25T15:04:03.209Z,97395.47
2023-01-25T15:06:33.745Z,97383.94
2023-01-25T15:09:02.010Z,97378.75
2023-01-25T15:11:49.791Z,97377.75
2023-01-25T15:14:21.520Z,97379.22
2023-01-25T15:16:49.907Z,97362.00
2023-01-25T15:19:26.834Z,97380.28
2023-01-25T15:21:58.379Z,97377.28
2023-01-25T15:24:28.123Z,97373.09
2023-01-25T15:26:56.848Z,97354.19
2023-01-25T15:29:27.659Z,97363.72
2023-01-25T15:31:57.627Z,97358.06
2023-01-25T15:34:29.476Z,97363.25
2023-01-25T15:36:59.124Z,97355.41
2023-01-25T15:39:27.828Z,97356.88
2023-01-25T15:41:57.149Z,97361.38
2023-01-25T15:44:25.413Z,97360.19
2023-01-25T15:46:54.416Z,97356.69
2023-01-25T15:49:26.835Z,97346.59
2023-01-25T15:51:55.446Z,97341.25
2023-01-25T15:54:26.343Z,97343.56
2023-01-25T15:56:59.116Z,97345.25
2023-01-25T15:59:27.902Z,97346.25
2023-01-25T16:01:56.231Z,97343.53
2023-01-25T16:04:26.305Z,97340.38
2023-01-25T16:06:55.775Z,97340.88
2023-01-25T16:09:29.108Z,97342.88
2023-01-25T16:11:59.128Z,97328.50
2023-01-25T16:14:30.732Z,97338.22
2023-01-25T16:17:02.369Z,97333.59
2023-01-25T16:19:31.605Z,97328.59
2023-01-25T16:22:00.762Z,97324.06
2023-01-25T16:24:30.382Z,97322.94
2023-01-25T16:27:00.296Z,97313.25
2023-01-25T16:29:29.994Z,97306.38
2023-01-25T16:31:58.372Z,97308.09
2023-01-25T16:34:28.098Z,97318.94
2023-01-25T16:36:57.680Z,97312.91
2023-01-25T16:39:28.245Z,97314.41
2023-01-25T16:41:57.911Z,97305.91
2023-01-25T16:44:27.067Z,97297.16
2023-01-25T16:46:55.419Z,97291.81
2023-01-25T16:49:26.455Z,97299.53
2023-01-25T16:51:55.463Z,97289.03
2023-01-25T16:54:24.801Z,97296.22
2023-01-25T16:56:54.902Z,97295.50
2023-01-25T16:59:25.441Z,97287.66
2023-01-25T17:01:54.323Z,97282.13
2023-01-25T17:04:23.748Z,97266.25
2023-01-25T17:06:52.999Z,97287.81
2023-01-25T17:09:24.773Z,97284.31
2023-01-25T17:11:53.892Z,97268.41
2023-01-25T17:14:24.428Z,97274.44
2023-01-25T17:16:55.644Z,97263.56
2023-01-25T17:19:25.676Z,97280.38
2023-01-25T17:21:54.007Z,97272.81
2023-01-25T17:24:22.857Z,97271.63
2023-01-25T17:26:51.858Z,97263.34
2023-01-25T17:29:22.148Z,97241.44
2023-01-25T17:31:51.936Z,97266.34
2023-01-25T17:34:21.807Z,97267.53
2023-01-25T17:36:53.016Z,97260.53
2023-01-25T17:39:22.516Z,97258.88
2023-01-25T17:41:52.478Z,97246.66
2023-01-25T17:44:22.978Z,97244.31
2023-01-25T17:46:52.945Z,97237.31
2023-01-25T17:49:22.742Z,97247.34
2023-01-25T17:51:51.086Z,97238.19
2023-01-25T17:54:19.965Z,97243.69
2023-01-25T17:56:48.185Z,97237.72
2023-01-25T17:59:16.941Z,97235.91
2023-01-25T18:01:45.242Z,97239.38
2023-01-25T18:04:17.944Z,97239.66
2023-01-25T18:06:46.224Z,97233.31
2023-01-25T18:09:14.459Z,97238.19
2023-01-25T18:11:44.042Z,97239.19
2023-01-25T18:14:16.662Z,97239.53
2023-01-25T18:16:45.152Z,97226.00
2023-01-25T18:19:15.224Z,97229.69
2023-01-25T18:21:44.094Z,97230.34
2023-01-25T18:24:27.210Z,97219.00
2023-01-25T18:27:01.307Z,97217.84
2023-01-25T18:29:41.832Z,97215.81
2023-01-25T18:32:10.082Z,97195.94
2023-01-25T18:34:39.788Z,97206.16
2023-01-25T18:37:17.707Z,97197.16
2023-01-25T18:39:46.252Z,97197.31
2023-01-25T18:42:15.382Z,97194.19
2023-01-25T18:44:48.048Z,97192.00
2023-01-25T18:47:19.015Z,97190.84
2023-01-25T18:49:50.179Z,97193.19
2023-01-25T18:52:20.274Z,97188.69
2023-01-25T18:54:48.527Z,97194.38
2023-01-25T18:57:18.564Z,97185.00
2023-01-25T18:59:46.871Z,97180.34
2023-01-25T19:02:16.488Z,97171.31
2023-01-25T19:04:46.130Z,97170.00
2023-01-25T19:07:16.176Z,97172.50
2023-01-25T19:09:45.352Z,97169.19
2023-01-25T19:12:13.568Z,97163.00
2023-01-25T19:14:42.003Z,97168.66
2023-01-25T19:17:10.297Z,97171.81
2023-01-25T19:19:39.000Z,97149.75
2023-01-25T19:22:07.664Z,97163.09
2023-01-25T19:24:37.272Z,97148.44
2023-01-25T19:27:05.790Z,97151.25
2023-01-25T19:29:34.399Z,97146.44
2023-01-25T19:32:02.786Z,97143.09
2023-01-25T19:34:31.034Z,97139.56
2023-01-25T19:36:59.306Z,97137.69
2023-01-25T19:39:28.838Z,97143.38
2023-01-25T19:41:58.709Z,97128.38
2023-01-25T19:44:28.000Z,97135.19
2023-01-25T19:46:56.223Z,97133.19
2023-01-25T19:49:26.015Z,97123.19
2023-01-25T19:51:54.758Z,97125.50
2023-01-25T19:54:24.149Z,97118.50
2023-01-25T19:56:52.983Z,97104.00
2023-01-25T19:59:25.656Z,97112.72
2023-01-25T20:01:54.909Z,97120.56
2023-01-25T20:04:24.837Z,97111.38
2023-01-25T20:06:54.374Z,97111.19
2023-01-25T20:09:27.680Z,97108.69
2023-01-25T20:11:58.653Z,97105.19
2023-01-25T20:14:28.389Z,97105.88
2023-01-25T20:16:57.382Z,97101.06
2023-01-25T20:19:28.591Z,97107.88
2023-01-25T20:21:59.420Z,97106.06
2023-01-25T20:24:29.592Z,97086.22
2023-01-25T20:26:58.724Z,97102.91
2023-01-25T20:29:28.896Z,97100.25
2023-01-25T20:31:57.810Z,97099.06
2023-01-25T20:34:26.082Z,97089.41
2023-01-25T20:36:55.011Z,97080.75
2023-01-25T20:39:23.639Z,97084.59
2023-01-25T20:41:53.632Z,97067.41
2023-01-25T20:44:22.212Z,97078.44
2023-01-25T20:46:53.245Z,97068.78
2023-01-25T20:49:22.234Z,97078.94
2023-01-25T20:51:51.421Z,97075.94
2023-01-25T20:54:21.191Z,97070.59
2023-01-25T20:56:50.769Z,97070.94
2023-01-25T20:59:19.908Z,97055.78
2023-01-25T21:01:50.733Z,97066.94
2023-01-25T21:04:22.762Z,97007.72
2023-01-25T21:06:51.362Z,97056.44
2023-01-25T21:09:20.106Z,97057.28
2023-01-25T21:11:48.716Z,97057.41
2023-01-25T21:14:19.406Z,97048.56
2023-01-25T21:16:47.675Z,97046.75
2023-01-25T21:19:16.356Z,97049.56
2023-01-25T21:21:46.409Z,97041.91
2023-01-25T21:24:15.409Z,97031.91
2023-01-25T21:26:43.911Z,97033.25
2023-01-25T21:29:26.579Z,97023.06
2023-01-25T21:31:55.339Z,97023.25
2023-01-25T21:34:23.871Z,97024.56
2023-01-25T21:36:54.460Z,97015.56
2023-01-25T21:39:23.500Z,97027.56
2023-01-25T21:41:51.895Z,97021.72
2023-01-25T21:44:38.845Z,97019.41
2023-01-25T21:50:14.155Z,97019.22
2023-01-25T21:52:52.469Z,97013.41
2023-01-25T21:55:20.802Z,97011.22
2023-01-25T21:57:50.140Z,97005.88
2023-01-25T22:00:20.431Z,97003.88
2023-01-25T22:02:51.920Z,96998.53
2023-01-25T22:05:20.245Z,96996.22
2023-01-25T22:07:49.199Z,96997.38
2023-01-25T22:10:20.450Z,97003.03
2023-01-25T22:12:50.618Z,97009.56
2023-01-25T22:15:19.768Z,96997.53
2023-01-25T22:17:47.994Z,96995.22
2023-01-25T22:20:17.332Z,96983.38
2023-01-25T22:22:45.580Z,96994.03
2023-01-25T22:25:13.852Z,96978.56
2023-01-25T22:27:51.509Z,96983.06
2023-01-25T22:30:20.534Z,96968.56
2023-01-25T22:32:48.803Z,96961.56
2023-01-25T22:35:18.044Z,96963.69
2023-01-25T22:37:46.267Z,96960.72
2023-01-25T22:40:16.474Z,96962.56
2023-01-25T22:42:46.132Z,96958.06
2023-01-25T22:45:20.236Z,96947.53
2023-01-25T22:47:52.510Z,96939.53
2023-01-25T22:50:21.683Z,96909.03
2023-01-25T22:52:52.138Z,96943.88
2023-01-25T22:55:21.414Z,96877.88
2023-01-25T22:57:53.031Z,96934.53
2023-01-25T23:00:22.609Z,96921.56
2023-01-25T23:02:52.276Z,96919.22
2023-01-25T23:05:21.855Z,96937.72
2023-01-25T23:07:50.111Z,96927.38
2023-01-25T23:10:20.275Z,96929.88
2023-01-25T23:12:48.581Z,96930.03
2023-01-25T23:15:18.540Z,96921.22
2023-01-25T23:18:04.555Z,96930.69
2023-01-25T23:20:33.225Z,96913.88
2023-01-25T23:23:01.458Z,96917.06
2023-01-25T23:25:48.508Z,96905.69
2023-01-25T23:28:37.108Z,96902.56
2023-01-25T23:31:27.602Z,96902.72
2023-01-25T23:34:16.225Z,96903.19
2023-01-25T23:37:05.169Z,96911.88
2023-01-25T23:39:53.712Z,96905.84
2023-01-25T23:42:43.244Z,96891.53
2023-01-25T23:45:31.768Z,96894.88
2023-01-25T23:48:22.130Z,96899.38
2023-01-25T23:51:11.857Z,96889.88
2023-01-25T23:54:00.382Z,96881.19
2023-01-25T23:56:50.382Z,96878.06
2023-01-25T23:59:39.010Z,96872.22
